sensor_id;sensor_type;location;lat;lon;timestamp;pressure;altitude;pressure_sealevel;temperature;humidity
26915;BME280;14480;52.608;13.416;2022-09-09T06:45:19;111587.56;;;-144.42;97.13
26915;BME280;14480;52.608;13.416;2022-09-09T06:50:29;111587.56;;;-144.42;96.87
26915;BME280;14480;52.608;13.416;2022-09-09T06:55:34;111587.56;;;-144.42;100.00
26915;BME280;14480;52.608;13.416;2022-09-09T07:00:48;111587.56;;;-144.42;100.00
26915;BME280;14480;52.608;13.416;2022-09-09T07:06:02;111587.56;;;-144.42;100.00
26915;BME280;14480;52.608;13.416;2022-09-09T07:11:09;111587.56;;;-144.42;100.00
26915;BME280;14480;52.608;13.416;2022-09-09T07:16:19;111587.56;;;-144.42;100.00
26915;BME280;14480;52.608;13.416;2022-09-09T07:21:35;111587.56;;;-144.42;100.00
26915;BME280;14480;52.608;13.416;2022-09-09T07:27:00;111587.56;;;-144.42;100.00
26915;BME280;14480;52.608;13.416;2022-09-09T07:32:25;111587.56;;;-144.42;100.00
26915;BME280;14480;52.608;13.416;2022-09-09T07:37:29;111587.56;;;-144.42;99.88
26915;BME280;14480;52.608;13.416;2022-09-09T07:42:33;111587.56;;;-144.42;100.00
26915;BME280;14480;52.608;13.416;2022-09-09T07:47:38;111587.56;;;-144.42;100.00
26915;BME280;14480;52.608;13.416;2022-09-09T07:52:42;111587.56;;;-144.42;100.00
26915;BME280;14480;52.608;13.416;2022-09-09T07:57:47;111587.56;;;-144.42;100.00
26915;BME280;14480;52.608;13.416;2022-09-09T08:02:53;111587.56;;;-144.42;100.00
26915;BME280;14480;52.608;13.416;2022-09-09T08:07:57;111587.56;;;-144.42;100.00
26915;BME280;14480;52.608;13.416;2022-09-09T08:13:06;111587.56;;;-144.42;100.00
26915;BME280;14480;52.608;13.416;2022-09-09T08:18:21;111587.56;;;-144.42;100.00
26915;BME280;14480;52.608;13.416;2022-09-09T08:23:26;111587.56;;;-144.42;99.53
26915;BME280;14480;52.608;13.416;2022-09-09T08:28:30;111587.56;;;-144.42;100.00
26915;BME280;14480;52.608;13.416;2022-09-09T08:46:10;111587.56;;;-144.42;100.00
26915;BME280;14480;52.608;13.416;2022-09-09T08:51:56;111587.56;;;-144.42;100.00
26915;BME280;14480;52.608;13.416;2022-09-09T08:57:01;111587.56;;;-144.42;100.00
26915;BME280;14480;52.608;13.416;2022-09-09T09:02:16;111587.56;;;-144.42;100.00
26915;BME280;14480;52.608;13.416;2022-09-09T09:07:59;111587.56;;;-144.42;100.00
26915;BME280;14480;52.608;13.416;2022-09-09T09:13:18;111587.56;;;-144.42;100.00
26915;BME280;14480;52.608;13.416;2022-09-09T09:18:27;111587.56;;;-144.42;100.00
26915;BME280;14480;52.608;13.416;2022-09-09T09:23:38;111587.56;;;-144.42;99.81
26915;BME280;14480;52.608;13.416;2022-09-09T09:28:45;111587.56;;;-144.42;96.95
26915;BME280;14480;52.608;13.416;2022-09-09T09:33:54;111587.56;;;-144.42;96.63
26915;BME280;14480;52.608;13.416;2022-09-09T09:39:02;111587.56;;;-144.42;93.09
26915;BME280;14480;52.608;13.416;2022-09-09T09:44:35;111587.56;;;-144.42;90.42
26915;BME280;14480;52.608;13.416;2022-09-09T09:49:56;111587.56;;;-144.42;89.10
26915;BME280;14480;52.608;13.416;2022-09-09T09:55:19;111587.56;;;-144.42;87.90
26915;BME280;14480;52.608;13.416;2022-09-09T10:00:34;111587.56;;;-144.42;87.27
26915;BME280;14480;52.608;13.416;2022-09-09T10:05:51;111587.56;;;-144.42;89.32
26915;BME280;14480;52.608;13.416;2022-09-09T10:11:17;111587.56;;;-144.42;89.78
26915;BME280;14480;52.608;13.416;2022-09-09T10:16:39;111587.56;;;-144.42;88.73
26915;BME280;14480;52.608;13.416;2022-09-09T10:22:08;111587.56;;;-144.42;89.89
26915;BME280;14480;52.608;13.416;2022-09-09T10:27:21;111587.56;;;-144.42;90.63
26915;BME280;14480;52.608;13.416;2022-09-09T10:32:37;111587.56;;;-144.42;89.62
26915;BME280;14480;52.608;13.416;2022-09-09T10:38:30;111587.56;;;-144.42;89.59
26915;BME280;14480;52.608;13.416;2022-09-09T10:49:13;111587.56;;;-144.42;88.87
26915;BME280;14480;52.608;13.416;2022-09-09T10:54:41;111587.56;;;-144.42;87.92
26915;BME280;14480;52.608;13.416;2022-09-09T10:59:53;111587.56;;;-144.42;87.24
26915;BME280;14480;52.608;13.416;2022-09-09T11:05:17;111587.56;;;-144.42;88.33
26915;BME280;14480;52.608;13.416;2022-09-09T11:10:28;111587.56;;;-144.42;89.57
26915;BME280;14480;52.608;13.416;2022-09-09T11:15:38;111587.56;;;-144.42;88.14
26915;BME280;14480;52.608;13.416;2022-09-09T11:20:45;111587.56;;;-144.42;87.04
26915;BME280;14480;52.608;13.416;2022-09-09T11:25:55;111587.56;;;-144.42;86.13
26915;BME280;14480;52.608;13.416;2022-09-09T11:31:10;111587.56;;;-144.42;86.04
26915;BME280;14480;52.608;13.416;2022-09-09T11:36:50;111587.56;;;-144.42;87.65
26915;BME280;14480;52.608;13.416;2022-09-09T11:42:07;111587.56;;;-144.42;83.82
26915;BME280;14480;52.608;13.416;2022-09-09T11:47:24;111587.56;;;-144.42;82.69
26915;BME280;14480;52.608;13.416;2022-09-09T11:52:37;111587.56;;;-144.42;81.52
26915;BME280;14480;52.608;13.416;2022-09-09T11:57:45;111587.56;;;-144.42;81.61
26915;BME280;14480;52.608;13.416;2022-09-09T12:02:51;111587.56;;;-144.42;81.43
26915;BME280;14480;52.608;13.416;2022-09-09T12:07:57;111587.56;;;-144.42;82.63
26915;BME280;14480;52.608;13.416;2022-09-09T12:13:16;111587.56;;;-144.42;83.45
26915;BME280;14480;52.608;13.416;2022-09-09T12:18:36;111587.56;;;-144.42;83.70
26915;BME280;14480;52.608;13.416;2022-09-09T12:23:45;111587.56;;;-144.42;83.58
26915;BME280;14480;52.608;13.416;2022-09-09T12:29:04;111587.56;;;-144.42;82.19
26915;BME280;14480;52.608;13.416;2022-09-09T12:34:11;111587.56;;;-144.42;83.80
26915;BME280;14480;52.608;13.416;2022-09-09T12:39:19;111587.56;;;-144.42;82.45
26915;BME280;14480;52.608;13.416;2022-09-09T12:44:28;111587.56;;;-144.42;80.56
26915;BME280;14480;52.608;13.416;2022-09-09T12:49:34;111587.56;;;-144.42;80.41
26915;BME280;14480;52.608;13.416;2022-09-09T12:54:44;111587.56;;;-144.42;82.66
26915;BME280;14480;52.608;13.416;2022-09-09T12:59:50;111587.56;;;-144.42;82.36
26915;BME280;14480;52.608;13.416;2022-09-09T13:04:54;111587.56;;;-144.42;80.68
26915;BME280;14480;52.608;13.416;2022-09-09T13:09:58;111587.56;;;-144.42;81.34
26915;BME280;14480;52.608;13.416;2022-09-09T13:15:03;111587.56;;;-144.42;82.41
26915;BME280;14480;52.608;13.416;2022-09-09T13:20:16;111587.56;;;-144.42;80.85
26915;BME280;14480;52.608;13.416;2022-09-09T13:25:24;111587.56;;;-144.42;80.25
26915;BME280;14480;52.608;13.416;2022-09-09T13:30:31;111587.56;;;-144.42;80.26
26915;BME280;14480;52.608;13.416;2022-09-09T13:35:47;111587.56;;;-144.42;80.15
26915;BME280;14480;52.608;13.416;2022-09-09T13:40:54;111587.56;;;-144.42;81.39
26915;BME280;14480;52.608;13.416;2022-09-09T13:46:03;111587.56;;;-144.42;81.73
26915;BME280;14480;52.608;13.416;2022-09-09T13:51:29;111587.56;;;-144.42;80.82
26915;BME280;14480;52.608;13.416;2022-09-09T13:56:33;111587.56;;;-144.42;79.40
26915;BME280;14480;52.608;13.416;2022-09-09T14:01:41;111587.56;;;-144.42;78.46
26915;BME280;14480;52.608;13.416;2022-09-09T14:06:47;111587.56;;;-144.42;77.04
26915;BME280;14480;52.608;13.416;2022-09-09T14:11:51;111587.56;;;-144.42;77.09
26915;BME280;14480;52.608;13.416;2022-09-09T14:17:01;111587.56;;;-144.42;75.29
26915;BME280;14480;52.608;13.416;2022-09-09T14:22:09;111587.56;;;-144.42;76.27
26915;BME280;14480;52.608;13.416;2022-09-09T14:27:15;111587.56;;;-144.42;76.23
26915;BME280;14480;52.608;13.416;2022-09-09T14:32:22;111587.56;;;-144.42;78.00
26915;BME280;14480;52.608;13.416;2022-09-09T14:37:28;111587.56;;;-144.42;78.30
26915;BME280;14480;52.608;13.416;2022-09-09T14:42:33;111587.56;;;-144.42;78.76
26915;BME280;14480;52.608;13.416;2022-09-09T14:47:41;111587.56;;;-144.42;78.10
26915;BME280;14480;52.608;13.416;2022-09-09T14:52:45;111587.56;;;-144.42;77.07
26915;BME280;14480;52.608;13.416;2022-09-09T14:57:49;111587.56;;;-144.42;78.24
26915;BME280;14480;52.608;13.416;2022-09-09T15:02:54;111587.56;;;-144.42;77.45
26915;BME280;14480;52.608;13.416;2022-09-09T15:08:04;111587.56;;;-144.42;77.15
26915;BME280;14480;52.608;13.416;2022-09-09T15:13:22;111587.56;;;-144.42;79.71
26915;BME280;14480;52.608;13.416;2022-09-09T15:18:34;111587.56;;;-144.42;78.83
26915;BME280;14480;52.608;13.416;2022-09-09T15:23:45;111587.56;;;-144.42;79.03
26915;BME280;14480;52.608;13.416;2022-09-09T15:28:49;111587.56;;;-144.42;80.68
26915;BME280;14480;52.608;13.416;2022-09-09T15:33:56;111587.56;;;-144.42;79.89
26915;BME280;14480;52.608;13.416;2022-09-09T15:39:04;111587.56;;;-144.42;80.49
26915;BME280;14480;52.608;13.416;2022-09-09T15:44:09;111587.56;;;-144.42;79.67
26915;BME280;14480;52.608;13.416;2022-09-09T15:49:17;111587.56;;;-144.42;80.62
26915;BME280;14480;52.608;13.416;2022-09-09T15:54:22;111587.56;;;-144.42;80.55
26915;BME280;14480;52.608;13.416;2022-09-09T15:59:28;111587.56;;;-144.42;82.02
26915;BME280;14480;52.608;13.416;2022-09-09T16:04:34;111587.56;;;-144.42;81.98
26915;BME280;14480;52.608;13.416;2022-09-09T16:09:38;111587.56;;;-144.42;82.29
26915;BME280;14480;52.608;13.416;2022-09-09T16:14:44;111587.56;;;-144.42;83.36
26915;BME280;14480;52.608;13.416;2022-09-09T16:19:49;111587.56;;;-144.42;82.96
26915;BME280;14480;52.608;13.416;2022-09-09T16:24:53;111587.56;;;-144.42;83.17
26915;BME280;14480;52.608;13.416;2022-09-09T16:29:56;111587.56;;;-144.42;83.45
26915;BME280;14480;52.608;13.416;2022-09-09T16:35:02;111587.56;;;-144.42;83.92
26915;BME280;14480;52.608;13.416;2022-09-09T16:40:08;111587.56;;;-144.42;84.64
26915;BME280;14480;52.608;13.416;2022-09-09T16:45:12;111587.56;;;-144.42;85.10
26915;BME280;14480;52.608;13.416;2022-09-09T16:50:20;111587.56;;;-144.42;86.70
26915;BME280;14480;52.608;13.416;2022-09-09T16:55:24;111587.56;;;-144.42;87.13
26915;BME280;14480;52.608;13.416;2022-09-09T17:00:42;111587.56;;;-144.42;88.71
26915;BME280;14480;52.608;13.416;2022-09-09T17:05:47;111587.56;;;-144.42;87.75
26915;BME280;14480;52.608;13.416;2022-09-09T17:10:51;111587.56;;;-144.42;88.42
26915;BME280;14480;52.608;13.416;2022-09-09T17:15:55;111587.56;;;-144.42;89.57
26915;BME280;14480;52.608;13.416;2022-09-09T17:21:16;111587.56;;;-144.42;90.81
26915;BME280;14480;52.608;13.416;2022-09-09T17:26:25;111587.56;;;-144.42;93.19
26915;BME280;14480;52.608;13.416;2022-09-09T17:31:30;111587.56;;;-144.42;94.61
26915;BME280;14480;52.608;13.416;2022-09-09T17:36:37;111587.56;;;-144.42;100.00
26915;BME280;14480;52.608;13.416;2022-09-09T17:41:41;111587.56;;;-144.42;100.00
26915;BME280;14480;52.608;13.416;2022-09-09T17:46:45;111587.56;;;-144.42;100.00
26915;BME280;14480;52.608;13.416;2022-09-09T17:51:51;111587.56;;;-144.42;100.00
26915;BME280;14480;52.608;13.416;2022-09-09T17:56:56;111587.56;;;-144.42;100.00
26915;BME280;14480;52.608;13.416;2022-09-09T18:02:02;111587.56;;;-144.42;100.00
26915;BME280;14480;52.608;13.416;2022-09-09T18:07:10;111587.56;;;-144.42;100.00
26915;BME280;14480;52.608;13.416;2022-09-09T18:12:15;111587.56;;;-144.42;100.00
26915;BME280;14480;52.608;13.416;2022-09-09T18:17:35;111587.56;;;-144.42;100.00
26915;BME280;14480;52.608;13.416;2022-09-09T18:22:40;111587.56;;;-144.42;100.00
26915;BME280;14480;52.608;13.416;2022-09-09T18:27:48;111587.56;;;-144.42;100.00
26915;BME280;14480;52.608;13.416;2022-09-09T18:32:55;111587.56;;;-144.42;100.00
26915;BME280;14480;52.608;13.416;2022-09-09T18:38:16;111587.56;;;-144.42;100.00
26915;BME280;14480;52.608;13.416;2022-09-09T18:43:20;111587.56;;;-144.42;100.00
26915;BME280;14480;52.608;13.416;2022-09-09T18:48:24;111587.56;;;-144.42;100.00
26915;BME280;14480;52.608;13.416;2022-09-09T18:53:30;111587.56;;;-144.42;100.00
26915;BME280;14480;52.608;13.416;2022-09-09T18:58:35;111587.56;;;-144.42;100.00
26915;BME280;14480;52.608;13.416;2022-09-09T19:03:40;111587.56;;;-144.42;100.00
26915;BME280;14480;52.608;13.416;2022-09-09T19:08:48;111587.56;;;-144.42;100.00
26915;BME280;14480;52.608;13.416;2022-09-09T19:14:00;111587.56;;;-144.42;100.00
26915;BME280;14480;52.608;13.416;2022-09-09T19:19:08;111587.56;;;-144.42;100.00
26915;BME280;14480;52.608;13.416;2022-09-09T19:24:18;111587.56;;;-144.42;100.00
26915;BME280;14480;52.608;13.416;2022-09-09T19:29:24;111587.56;;;-144.42;100.00
26915;BME280;14480;52.608;13.416;2022-09-09T19:34:36;111587.56;;;-144.42;100.00
26915;BME280;14480;52.608;13.416;2022-09-09T19:39:42;111587.56;;;-144.42;100.00
26915;BME280;14480;52.608;13.416;2022-09-09T19:44:47;111587.56;;;-144.42;100.00
26915;BME280;14480;52.608;13.416;2022-09-09T19:49:52;111587.56;;;-144.42;100.00
26915;BME280;14480;52.608;13.416;2022-09-09T19:54:58;111587.56;;;-144.42;100.00
26915;BME280;14480;52.608;13.416;2022-09-09T20:00:27;111587.56;;;-144.42;100.00
26915;BME280;14480;52.608;13.416;2022-09-09T20:05:33;111587.56;;;-144.42;100.00
26915;BME280;14480;52.608;13.416;2022-09-09T20:10:49;111587.56;;;-144.42;100.00
26915;BME280;14480;52.608;13.416;2022-09-09T20:15:56;111587.56;;;-144.42;100.00
26915;BME280;14480;52.608;13.416;2022-09-09T20:21:10;111587.56;;;-144.42;100.00
26915;BME280;14480;52.608;13.416;2022-09-09T20:26:18;111587.56;;;-144.42;100.00
26915;BME280;14480;52.608;13.416;2022-09-09T20:31:29;111587.56;;;-144.42;100.00
26915;BME280;14480;52.608;13.416;2022-09-09T20:36:55;111587.56;;;-144.42;100.00
26915;BME280;14480;52.608;13.416;2022-09-09T20:42:09;111587.56;;;-144.42;100.00
26915;BME280;14480;52.608;13.416;2022-09-09T20:47:16;111587.56;;;-144.42;100.00
26915;BME280;14480;52.608;13.416;2022-09-09T20:52:20;111587.56;;;-144.42;100.00
26915;BME280;14480;52.608;13.416;2022-09-09T20:57:26;111587.56;;;-144.42;100.00
26915;BME280;14480;52.608;13.416;2022-09-09T21:02:29;111587.56;;;-144.42;100.00
26915;BME280;14480;52.608;13.416;2022-09-09T21:07:33;111587.56;;;-144.42;100.00
26915;BME280;14480;52.608;13.416;2022-09-09T21:12:39;111587.56;;;-144.42;100.00
26915;BME280;14480;52.608;13.416;2022-09-09T21:17:44;111587.56;;;-144.42;100.00
26915;BME280;14480;52.608;13.416;2022-09-09T21:22:47;111587.56;;;-144.42;100.00
26915;BME280;14480;52.608;13.416;2022-09-09T21:27:52;111587.56;;;-144.42;100.00
26915;BME280;14480;52.608;13.416;2022-09-09T21:32:56;111587.56;;;-144.42;100.00
26915;BME280;14480;52.608;13.416;2022-09-09T21:38:02;111587.56;;;-144.42;100.00
26915;BME280;14480;52.608;13.416;2022-09-09T21:43:08;111587.56;;;-144.42;100.00
26915;BME280;14480;52.608;13.416;2022-09-09T21:48:15;111587.56;;;-144.42;100.00
26915;BME280;14480;52.608;13.416;2022-09-09T21:53:20;111587.56;;;-144.42;100.00
26915;BME280;14480;52.608;13.416;2022-09-09T21:58:27;111587.56;;;-144.42;100.00
